Time;durP1;ratioP1;P1;durP2;ratioP2;P2;SDS_P1;SDS_P2;PMS_P1;PMS_P2;Temp;Humidity;BMP_temperature;BMP_pressure;BME280_temperature;BME280_humidity;BME280_pressure;Samples;Min_cycle;Max_cycle;Signal;HPM_P1;HPM_P2
2024/04/16 00:01:17;;;;;;;;;;;5.40;99.90;;;;;;8615746;27;19939;-84
2024/04/16 00:05:21;;;;;;;;;;;5.40;99.90;;;;;;8587225;27;19929;-84
2024/04/16 00:09:22;;;;;;;;;;;5.20;99.90;;;;;;8591815;27;19984;-85
2024/04/16 00:13:22;;;;;;;;;;;5.40;99.90;;;;;;8601026;27;19932;-83
2024/04/16 00:17:27;;;;;;;;;;;5.30;99.90;;;;;;8602339;27;19940;-83
2024/04/16 00:21:27;;;;;;;;;;;5.00;99.90;;;;;;8585010;27;19939;-83
2024/04/16 00:25:28;;;;;;;;;;;4.70;99.90;;;;;;8619427;27;20460;-84
2024/04/16 00:29:28;;;;;;;;;;;4.60;99.90;;;;;;8614851;27;19928;-80
2024/04/16 00:33:29;;;;;;;;;;;4.40;99.90;;;;;;8592565;27;19928;-81
2024/04/16 00:37:29;;;;;;;;;;;4.10;99.90;;;;;;8584066;27;20507;-82
2024/04/16 00:41:30;;;;;;;;;;;4.00;99.90;;;;;;8621132;27;19935;-79
2024/04/16 00:45:30;;;;;;;;;;;4.00;99.90;;;;;;8630284;27;19946;-82
2024/04/16 00:49:31;;;;;;;;;;;3.80;99.90;;;;;;8618685;27;19940;-83
2024/04/16 00:53:31;;;;;;;;;;;3.70;99.90;;;;;;8624873;27;20110;-82
2024/04/16 00:57:32;;;;;;;;;;;3.70;99.90;;;;;;8604682;27;19943;-82
2024/04/16 01:01:32;;;;;;;;;;;3.70;99.90;;;;;;8597741;27;19940;-82
2024/04/16 01:05:42;;;;;;;;;;;3.70;99.90;;;;;;8618582;27;19935;-85
2024/04/16 01:09:43;;;;;;;;;;;3.60;99.90;;;;;;8620983;27;19928;-81
2024/04/16 01:13:43;;;;;;;;;;;3.60;99.90;;;;;;8625147;27;19928;-82
2024/04/16 01:17:44;;;;;;;;;;;3.60;99.90;;;;;;8626245;27;19935;-83
2024/04/16 01:21:44;;;;;;;;;;;3.50;99.90;;;;;;8594718;27;19944;-83
2024/04/16 01:25:45;;;;;;;;;;;3.50;99.90;;;;;;8609235;22;19943;-83
2024/04/16 01:29:45;;;;;;;;;;;3.50;99.90;;;;;;8628854;27;19928;-84
2024/04/16 01:33:46;;;;;;;;;;;3.50;99.90;;;;;;8591344;27;19937;-83
2024/04/16 01:37:46;;;;;;;;;;;3.50;99.90;;;;;;8566811;27;20272;-82
2024/04/16 01:41:46;;;;;;;;;;;3.70;99.90;;;;;;8552318;27;19932;-82
2024/04/16 01:45:47;;;;;;;;;;;3.70;99.90;;;;;;8540206;27;19929;-82
2024/04/16 01:49:48;;;;;;;;;;;3.70;99.90;;;;;;8570424;27;19929;-82
2024/04/16 01:53:51;;;;;;;;;;;3.60;99.90;;;;;;8542519;27;20309;-84
2024/04/16 01:57:52;;;;;;;;;;;3.50;99.90;;;;;;8536436;27;19933;-83
2024/04/16 02:01:52;;;;;;;;;;;3.60;99.90;;;;;;8541633;27;20733;-82
2024/04/16 02:05:55;;;;;;;;;;;3.60;99.90;;;;;;8571832;27;19929;-85
2024/04/16 02:10:05;;;;;;;;;;;;;;;;;;;;;
2024/04/16 02:14:06;;;;;;;;;;;3.70;99.90;;;;;;8570384;27;19929;-84
2024/04/16 02:18:06;;;;;;;;;;;3.70;99.90;;;;;;8541962;27;19936;-84
2024/04/16 02:22:10;;;;;;;;;;;3.70;99.90;;;;;;8582314;27;20440;-85
2024/04/16 02:26:10;;;;;;;;;;;3.60;99.90;;;;;;8541228;27;19928;-84
2024/04/16 02:30:11;;;;;;;;;;;3.60;99.90;;;;;;8541089;27;19957;-84
2024/04/16 02:34:12;;;;;;;;;;;3.70;99.90;;;;;;8547764;27;19997;-83
2024/04/16 02:38:13;;;;;;;;;;;3.60;99.90;;;;;;8545222;27;19929;-83
2024/04/16 02:42:17;;;;;;;;;;;3.70;99.90;;;;;;8524240;27;19940;-85
2024/04/16 02:46:18;;;;;;;;;;;3.70;99.90;;;;;;8544379;27;19929;-84
2024/04/16 02:50:18;;;;;;;;;;;3.70;99.90;;;;;;8531316;27;19936;-84
2024/04/16 02:54:19;;;;;;;;;;;3.60;99.90;;;;;;8529503;27;19940;-83
2024/04/16 02:58:21;;;;;;;;;;;3.60;99.90;;;;;;8572990;27;19936;-84
2024/04/16 03:02:31;;;;;;;;;;;;;;;;;;;;;
2024/04/16 03:06:32;;;;;;;;;;;3.80;99.90;;;;;;8606573;27;19928;-87
2024/04/16 03:10:45;;;;;;;;;;;3.60;99.90;;;;;;8591515;27;19943;-85
2024/04/16 03:19:22;;;;;;;;;;;3.50;99.90;;;;;;8600279;27;19935;-85
2024/04/16 03:23:42;;;;;;;;;;;3.60;99.90;;;;;;8566643;27;20389;-86
2024/04/16 03:32:17;;;;;;;;;;;3.60;99.90;;;;;;8607032;27;19967;-85
2024/04/16 03:41:21;;;;;;;;;;;3.60;99.90;;;;;;8527380;27;19931;-86
2024/04/16 03:45:28;;;;;;;;;;;3.50;99.90;;;;;;8569183;27;19935;-84
2024/04/16 03:49:37;;;;;;;;;;;3.40;99.90;;;;;;8571828;27;19928;-85
2024/04/16 03:54:10;;;;;;;;;;;3.40;99.90;;;;;;8591739;27;19935;-84
2024/04/16 03:58:20;;;;;;;;;;;3.50;99.90;;;;;;8590415;27;19942;-86
2024/04/16 04:02:42;;;;;;;;;;;3.70;99.90;;;;;;8590180;27;19935;-83
2024/04/16 04:07:11;;;;;;;;;;;;;;;;;;;;;
2024/04/16 04:11:12;;;;;;;;;;;3.50;99.90;;;;;;8592130;27;19928;-85
2024/04/16 04:15:37;;;;;;;;;;;3.50;99.90;;;;;;8585295;27;20346;-86
2024/04/16 04:20:05;;;;;;;;;;;3.40;99.90;;;;;;8606283;27;19932;-83
2024/04/16 04:24:47;;;;;;;;;;;3.70;99.90;;;;;;8581000;27;19928;-84
2024/04/16 04:28:55;;;;;;;;;;;3.50;99.90;;;;;;8474539;27;19936;-83
2024/04/16 04:33:19;;;;;;;;;;;3.50;99.90;;;;;;8585959;27;20608;-84
2024/04/16 04:37:27;;;;;;;;;;;3.50;99.90;;;;;;8486382;27;19928;-83
2024/04/16 04:41:37;;;;;;;;;;;3.50;99.90;;;;;;8594036;27;19937;-84
2024/04/16 04:46:10;;;;;;;;;;;3.50;99.90;;;;;;8579043;27;19940;-84
2024/04/16 05:00:28;;;;;;;;;;;;;;;;;;;;;
2024/04/16 06:09:30;;;;;;;;;;;;;;;;;;;;;
2024/04/16 06:14:09;;;;;;;;;;;4.80;99.90;;;;;;8551759;27;19952;-83
2024/04/16 06:18:34;;;;;;;;;;;5.00;99.90;;;;;;8432891;28;19936;-85
2024/04/16 06:22:47;;;;;;;;;;;;;;;;;;;;;
2024/04/16 06:27:21;;;;;;;;;;;4.80;99.90;;;;;;8479931;27;20366;-84
2024/04/16 06:31:48;;;;;;;;;;;4.90;99.90;;;;;;8344073;28;19930;-84
2024/04/16 06:35:48;;;;;;;;;;;5.00;99.90;;;;;;8354147;28;20014;-83
2024/04/16 06:40:10;;;;;;;;;;;5.00;99.90;;;;;;8382011;27;19956;-83
2024/04/16 06:44:13;;;;;;;;;;;5.00;99.90;;;;;;8558173;27;19936;-85
2024/04/16 06:48:19;;;;;;;;;;;5.10;99.90;;;;;;8556925;27;19929;-83
2024/04/16 06:57:15;;;;;;;;;;;5.50;99.90;;;;;;8449546;28;20323;-84
2024/04/16 07:01:41;;;;;;;;;;;5.30;99.90;;;;;;8449651;28;19994;-84
2024/04/16 07:10:12;;;;;;;;;;;5.00;99.90;;;;;;8464876;27;20393;-84
2024/04/16 07:14:40;;;;;;;;;;;5.20;99.90;;;;;;8535429;27;19969;-84
2024/04/16 07:18:57;;;;;;;;;;;5.40;99.90;;;;;;8542406;27;19935;-84
2024/04/16 07:23:01;;;;;;;;;;;5.60;99.90;;;;;;8557412;27;19929;-84
2024/04/16 07:27:10;;;;;;;;;;;5.70;99.90;;;;;;8565911;27;19935;-83
2024/04/16 07:35:36;;;;;;;;;;;6.00;99.90;;;;;;8540996;27;20382;-85
2024/04/16 07:39:54;;;;;;;;;;;6.30;99.90;;;;;;8562535;27;19939;-84
2024/04/16 07:43:57;;;;;;;;;;;6.60;99.90;;;;;;8548628;27;19929;-85
2024/04/16 07:48:06;;;;;;;;;;;7.00;99.90;;;;;;8548442;27;19928;-83
2024/04/16 07:52:07;;;;;;;;;;;6.90;99.90;;;;;;8536621;27;19930;-85
2024/04/16 07:56:07;;;;;;;;;;;6.90;99.90;;;;;;8508242;27;20330;-85
2024/04/16 08:00:08;;;;;;;;;;;7.20;99.90;;;;;;8533014;27;19929;-86
2024/04/16 08:04:09;;;;;;;;;;;7.50;99.90;;;;;;8538397;27;19929;-85
2024/04/16 08:08:09;;;;;;;;;;;7.70;99.90;;;;;;8533717;27;19936;-83
2024/04/16 08:12:10;;;;;;;;;;;7.90;99.90;;;;;;8536454;27;19929;-83
2024/04/16 08:16:10;;;;;;;;;;;8.40;99.90;;;;;;8567981;27;19929;-84
2024/04/16 08:20:11;;;;;;;;;;;8.90;99.90;;;;;;8555849;27;20283;-84
2024/04/16 08:24:12;;;;;;;;;;;9.00;99.90;;;;;;8539468;27;20478;-85
2024/04/16 08:28:13;;;;;;;;;;;9.00;99.90;;;;;;8529455;27;20000;-84
2024/04/16 08:32:13;;;;;;;;;;;9.90;99.90;;;;;;8558984;27;19928;-86
2024/04/16 08:36:17;;;;;;;;;;;10.20;99.90;;;;;;8532793;27;20326;-85
2024/04/16 08:40:17;;;;;;;;;;;10.30;99.90;;;;;;8517488;27;19935;-85
2024/04/16 08:44:18;;;;;;;;;;;9.80;99.90;;;;;;8563221;27;20285;-86
2024/04/16 08:48:19;;;;;;;;;;;9.80;99.90;;;;;;8520390;27;19937;-83
2024/04/16 08:52:20;;;;;;;;;;;10.30;99.90;;;;;;8511586;27;20000;-84
2024/04/16 08:56:22;;;;;;;;;;;10.10;99.90;;;;;;8550877;27;20003;-86
2024/04/16 09:00:23;;;;;;;;;;;10.10;99.90;;;;;;8566746;27;19936;-84
2024/04/16 09:04:59;;;;;;;;;;;10.20;99.90;;;;;;8606052;22;19977;-87
2024/04/16 09:09:01;;;;;;;;;;;10.20;99.90;;;;;;8584908;27;19954;-83
2024/04/16 09:13:11;;;;;;;;;;;10.80;99.90;;;;;;8614782;27;19951;-87
2024/04/16 09:17:30;;;;;;;;;;;11.70;99.90;;;;;;8589356;27;20000;-85
2024/04/16 09:22:17;;;;;;;;;;;11.50;99.90;;;;;;8602031;27;19928;-87
2024/04/16 09:25:58;;;;;;;;;;;11.20;99.90;;;;;;8601347;27;19936;-86
2024/04/16 09:30:10;;;;;;;;;;;10.90;99.90;;;;;;8583579;27;19928;-86
2024/04/16 09:38:48;;;;;;;;;;;10.40;99.90;;;;;;8580628;27;19929;-85
2024/04/16 09:43:09;;;;;;;;;;;9.80;99.90;;;;;;8607093;27;19979;-86
2024/04/16 09:47:21;;;;;;;;;;;;;;;;;;;;;
2024/04/16 09:51:45;;;;;;;;;;;10.60;99.90;;;;;;8601792;27;19935;-85
2024/04/16 09:55:55;;;;;;;;;;;11.30;99.90;;;;;;8580613;27;19933;-88
2024/04/16 10:00:01;;;;;;;;;;;11.10;99.90;;;;;;8583213;27;19928;-84
2024/04/16 10:04:02;;;;;;;;;;;11.00;99.90;;;;;;8571496;27;19935;-86
2024/04/16 10:08:08;;;;;;;;;;;11.50;99.90;;;;;;8584181;27;20299;-87
2024/04/16 10:12:44;;;;;;;;;;;;;;;;;;;;;
2024/04/16 10:17:00;;;;;;;;;;;11.50;99.90;;;;;;8608834;27;19956;-84
2024/04/16 10:52:27;;;;;;;;;;;11.60;99.90;;;;;;8659810;22;19932;-88
2024/04/16 10:56:29;;;;;;;;;;;11.60;99.90;;;;;;8532485;27;20193;-85
2024/04/16 11:01:04;;;;;;;;;;;11.20;99.90;;;;;;8544892;27;19929;-87
2024/04/16 11:05:05;;;;;;;;;;;11.30;99.90;;;;;;8563081;27;20000;-86
2024/04/16 11:09:32;;;;;;;;;;;12.20;99.90;;;;;;8578227;27;19929;-86
2024/04/16 11:13:54;;;;;;;;;;;12.30;99.90;;;;;;8603113;22;19928;-87
2024/04/16 11:23:05;;;;;;;;;;;13.20;99.90;;;;;;8645309;27;19931;-85
2024/04/16 11:32:28;;;;;;;;;;;13.80;99.90;;;;;;9436826;22;20260;-85
2024/04/16 11:46:15;;;;;;;;;;;12.40;99.90;;;;;;8503415;27;19941;-85
2024/04/16 12:00:04;;;;;;;;;;;11.00;99.90;;;;;;8856314;22;19931;-86
2024/04/16 12:08:47;;;;;;;;;;;11.10;99.90;;;;;;8637433;27;19939;-86
2024/04/16 12:13:13;;;;;;;;;;;10.90;99.90;;;;;;8584602;27;20326;-87
2024/04/16 12:22:20;;;;;;;;;;;10.70;99.90;;;;;;8458109;27;20008;-86
2024/04/16 12:26:41;;;;;;;;;;;11.30;99.90;;;;;;8598631;27;19936;-83
2024/04/16 12:36:06;;;;;;;;;;;15.60;99.90;;;;;;8614252;27;20107;-84
2024/04/16 12:54:35;;;;;;;;;;;11.40;99.90;;;;;;8564651;27;19928;-85
2024/04/16 12:58:36;;;;;;;;;;;11.10;99.90;;;;;;8594308;27;19928;-87
2024/04/16 13:02:47;;;;;;;;;;;11.10;99.90;;;;;;8595259;27;19928;-86
2024/04/16 13:11:39;;;;;;;;;;;11.90;99.90;;;;;;8568275;27;19925;-86
2024/04/16 13:29:54;;;;;;;;;;;13.40;99.90;;;;;;8411321;28;19937;-88
2024/04/16 13:38:25;;;;;;;;;;;13.90;99.90;;;;;;8443029;27;19940;-88
2024/04/16 13:47:07;;;;;;;;;;;13.70;99.90;;;;;;8677680;22;19924;-88
2024/04/16 13:51:26;;;;;;;;;;;15.50;99.90;;;;;;8571497;27;19928;-87
2024/04/16 14:00:20;;;;;;;;;;;14.20;99.90;;;;;;8650524;22;19960;-85
2024/04/16 14:04:23;;;;;;;;;;;16.40;99.90;;;;;;8624509;27;20305;-89
2024/04/16 14:08:24;;;;;;;;;;;17.70;97.70;;;;;;8616552;27;19999;-87
2024/04/16 14:12:24;;;;;;;;;;;16.70;97.00;;;;;;8606899;27;19944;-87
2024/04/16 14:16:25;;;;;;;;;;;15.90;98.30;;;;;;8623382;27;19928;-88
2024/04/16 14:20:26;;;;;;;;;;;16.90;98.70;;;;;;8582376;27;19943;-86
2024/04/16 14:24:30;;;;;;;;;;;15.80;97.60;;;;;;8576634;27;19928;-88
2024/04/16 14:28:30;;;;;;;;;;;14.40;98.30;;;;;;8580822;27;19940;-88
2024/04/16 14:32:31;;;;;;;;;;;13.50;99.90;;;;;;8585744;27;20254;-86
2024/04/16 14:36:31;;;;;;;;;;;12.80;99.90;;;;;;8613472;27;19952;-87
2024/04/16 14:40:32;;;;;;;;;;;12.80;99.90;;;;;;8588309;27;19976;-87
2024/04/16 14:44:32;;;;;;;;;;;12.70;99.90;;;;;;8616851;27;19935;-86
2024/04/16 14:48:33;;;;;;;;;;;13.90;99.90;;;;;;8593305;27;19927;-88
2024/04/16 14:52:33;;;;;;;;;;;13.90;99.90;;;;;;8607021;27;19999;-88
2024/04/16 14:56:34;;;;;;;;;;;12.80;99.90;;;;;;8578266;27;19928;-88
2024/04/16 15:00:39;;;;;;;;;;;12.00;99.90;;;;;;8620450;27;19935;-88
2024/04/16 15:04:39;;;;;;;;;;;11.60;99.90;;;;;;8581874;27;19983;-86
2024/04/16 15:08:40;;;;;;;;;;;11.50;99.90;;;;;;8574800;27;19968;-90
2024/04/16 15:12:40;;;;;;;;;;;11.00;99.90;;;;;;8624207;27;19944;-88
2024/04/16 15:16:41;;;;;;;;;;;11.70;99.90;;;;;;8570822;27;19984;-87
2024/04/16 15:20:41;;;;;;;;;;;12.30;99.90;;;;;;8591522;27;20558;-88
2024/04/16 15:24:42;;;;;;;;;;;11.90;99.90;;;;;;8609855;27;19929;-85
2024/04/16 15:28:42;;;;;;;;;;;11.80;99.90;;;;;;8590961;27;19935;-86
2024/04/16 15:32:43;;;;;;;;;;;11.40;99.90;;;;;;8597450;27;19984;-88
2024/04/16 15:36:43;;;;;;;;;;;11.00;99.90;;;;;;8632804;27;19939;-88
2024/04/16 15:40:44;;;;;;;;;;;11.10;99.90;;;;;;8583759;27;19935;-88
2024/04/16 15:44:44;;;;;;;;;;;11.00;99.90;;;;;;8572227;27;20372;-88
2024/04/16 15:48:45;;;;;;;;;;;11.10;99.90;;;;;;8571480;27;19936;-87
2024/04/16 15:52:46;;;;;;;;;;;12.10;99.90;;;;;;8580164;27;20000;-88
2024/04/16 15:56:46;;;;;;;;;;;13.80;99.90;;;;;;8569935;27;20158;-86
2024/04/16 16:01:10;;;;;;;;;;;13.10;99.90;;;;;;8572075;27;19928;-86
2024/04/16 16:05:10;;;;;;;;;;;12.20;99.90;;;;;;8570292;27;19928;-87
2024/04/16 16:09:11;;;;;;;;;;;12.00;99.90;;;;;;8567346;27;19929;-88
2024/04/16 16:13:11;;;;;;;;;;;11.40;99.90;;;;;;8613251;27;19938;-87
2024/04/16 16:17:12;;;;;;;;;;;11.00;99.90;;;;;;8601329;27;19965;-86
2024/04/16 16:21:35;;;;;;;;;;;10.60;99.90;;;;;;8608932;27;19936;-86
2024/04/16 16:25:35;;;;;;;;;;;10.30;99.90;;;;;;8577999;27;19928;-88
2024/04/16 16:29:36;;;;;;;;;;;10.20;99.90;;;;;;8575273;27;19935;-87
2024/04/16 16:33:36;;;;;;;;;;;10.10;99.90;;;;;;8578565;27;20354;-87
2024/04/16 16:37:37;;;;;;;;;;;10.10;99.90;;;;;;8587810;27;19975;-86
2024/04/16 16:41:38;;;;;;;;;;;10.30;99.90;;;;;;8611687;27;19935;-88
2024/04/16 16:45:55;;;;;;;;;;;10.30;99.90;;;;;;8597120;27;19956;-86
2024/04/16 16:49:59;;;;;;;;;;;10.00;99.90;;;;;;8600371;27;20000;-87
2024/04/16 16:54:02;;;;;;;;;;;9.80;99.90;;;;;;8602197;27;19928;-87
2024/04/16 16:58:07;;;;;;;;;;;9.60;99.90;;;;;;8601013;27;19929;-89
2024/04/16 17:02:08;;;;;;;;;;;9.70;99.90;;;;;;8614220;27;20040;-87
2024/04/16 17:06:09;;;;;;;;;;;9.60;99.90;;;;;;8579495;27;20267;-87
2024/04/16 17:10:10;;;;;;;;;;;9.50;99.90;;;;;;8576244;27;19935;-86
2024/04/16 17:14:10;;;;;;;;;;;9.50;99.90;;;;;;8570920;27;19928;-87
2024/04/16 17:18:10;;;;;;;;;;;9.40;99.90;;;;;;8609965;27;19936;-88
2024/04/16 17:22:14;;;;;;;;;;;9.40;99.90;;;;;;8622007;27;19932;-87
2024/04/16 17:26:14;;;;;;;;;;;9.30;99.90;;;;;;8604609;27;19939;-89
2024/04/16 17:30:15;;;;;;;;;;;9.20;99.90;;;;;;8597954;27;19960;-87
2024/04/16 17:34:15;;;;;;;;;;;9.00;99.90;;;;;;8585099;27;20273;-84
2024/04/16 17:38:16;;;;;;;;;;;9.00;99.90;;;;;;8589505;27;19929;-84
2024/04/16 17:42:17;;;;;;;;;;;9.00;99.90;;;;;;8579578;27;20035;-85
2024/04/16 17:46:17;;;;;;;;;;;9.00;99.90;;;;;;8576667;27;20270;-84
2024/04/16 17:50:21;;;;;;;;;;;8.90;99.90;;;;;;8589379;27;19936;-84
2024/04/16 17:54:21;;;;;;;;;;;8.90;99.90;;;;;;8597800;27;20363;-85
2024/04/16 17:58:22;;;;;;;;;;;8.50;99.90;;;;;;8577357;27;19932;-84
2024/04/16 18:02:23;;;;;;;;;;;8.50;99.90;;;;;;8572312;27;19929;-84
2024/04/16 18:06:24;;;;;;;;;;;8.40;99.90;;;;;;8581515;27;19999;-85
2024/04/16 18:10:24;;;;;;;;;;;8.40;99.90;;;;;;8581633;27;19943;-86
2024/04/16 18:14:25;;;;;;;;;;;8.20;99.90;;;;;;8578023;27;19942;-86
2024/04/16 18:18:28;;;;;;;;;;;8.20;99.90;;;;;;8584239;27;19928;-84
2024/04/16 18:22:29;;;;;;;;;;;8.20;99.90;;;;;;8588682;27;19988;-83
2024/04/16 18:26:29;;;;;;;;;;;8.30;99.90;;;;;;8591936;27;20877;-86
2024/04/16 18:30:30;;;;;;;;;;;8.50;99.90;;;;;;8576912;27;19928;-84
2024/04/16 18:34:31;;;;;;;;;;;8.30;99.90;;;;;;8581796;27;20313;-84
2024/04/16 18:38:32;;;;;;;;;;;8.10;99.90;;;;;;8609979;27;20000;-84
2024/04/16 18:42:33;;;;;;;;;;;8.10;99.90;;;;;;8582216;27;19934;-84
2024/04/16 18:46:34;;;;;;;;;;;8.00;99.90;;;;;;8583177;27;19932;-84
2024/04/16 18:50:34;;;;;;;;;;;7.80;99.90;;;;;;8588374;27;19939;-84
2024/04/16 18:54:35;;;;;;;;;;;7.90;99.90;;;;;;8603151;27;19936;-85
2024/04/16 18:58:35;;;;;;;;;;;7.90;99.90;;;;;;8571832;27;21545;-86
2024/04/16 19:02:36;;;;;;;;;;;7.70;99.90;;;;;;8572258;27;19940;-85
2024/04/16 19:06:38;;;;;;;;;;;7.50;99.90;;;;;;8578260;27;19956;-84
2024/04/16 19:10:39;;;;;;;;;;;7.40;99.90;;;;;;8581199;27;19936;-85
2024/04/16 19:14:39;;;;;;;;;;;7.20;99.90;;;;;;8573854;27;19928;-84
2024/04/16 19:18:40;;;;;;;;;;;7.10;99.90;;;;;;8569750;27;19928;-84
2024/04/16 19:22:40;;;;;;;;;;;7.00;99.90;;;;;;8585309;27;19928;-84
2024/04/16 19:26:40;;;;;;;;;;;6.70;99.90;;;;;;8572785;27;20273;-86
2024/04/16 19:30:41;;;;;;;;;;;6.50;99.90;;;;;;8572318;27;20482;-85
2024/04/16 19:34:41;;;;;;;;;;;6.40;99.90;;;;;;8600022;27;20486;-83
2024/04/16 19:38:42;;;;;;;;;;;6.30;99.90;;;;;;8606389;27;20577;-84
2024/04/16 19:42:44;;;;;;;;;;;6.10;99.90;;;;;;8584936;27;19943;-84
2024/04/16 19:46:44;;;;;;;;;;;6.10;99.90;;;;;;8594523;27;19936;-83
2024/04/16 19:50:45;;;;;;;;;;;6.00;99.90;;;;;;8581836;27;19928;-84
2024/04/16 19:54:45;;;;;;;;;;;5.90;99.90;;;;;;8615018;27;20002;-85
2024/04/16 19:58:46;;;;;;;;;;;5.80;99.90;;;;;;8615330;27;19935;-83
2024/04/16 20:02:46;;;;;;;;;;;5.70;99.90;;;;;;8594046;27;19948;-84
2024/04/16 20:06:47;;;;;;;;;;;5.90;99.90;;;;;;8591870;27;19981;-84
2024/04/16 20:10:47;;;;;;;;;;;5.90;99.90;;;;;;8609353;27;19935;-84
2024/04/16 20:14:48;;;;;;;;;;;5.90;99.90;;;;;;8591380;27;19960;-84
2024/04/16 20:18:48;;;;;;;;;;;5.90;99.90;;;;;;8595651;27;19928;-83
2024/04/16 20:22:49;;;;;;;;;;;6.00;99.90;;;;;;8606409;27;19935;-82
2024/04/16 20:26:49;;;;;;;;;;;6.00;99.90;;;;;;8571735;27;19936;-82
2024/04/16 20:30:56;;;;;;;;;;;5.90;99.90;;;;;;8597944;27;19960;-84
2024/04/16 20:34:58;;;;;;;;;;;5.80;99.90;;;;;;8604187;27;19955;-82
2024/04/16 20:38:58;;;;;;;;;;;5.70;99.90;;;;;;8623853;27;19925;-83
2024/04/16 20:42:59;;;;;;;;;;;5.70;99.90;;;;;;8620844;27;19932;-83
2024/04/16 20:46:59;;;;;;;;;;;5.50;99.90;;;;;;8609183;27;20003;-85
2024/04/16 20:51:00;;;;;;;;;;;5.50;99.90;;;;;;8589176;27;19936;-84
2024/04/16 20:55:00;;;;;;;;;;;5.60;99.90;;;;;;8605679;27;19942;-83
2024/04/16 20:59:01;;;;;;;;;;;5.60;99.90;;;;;;8618546;27;19999;-82
2024/04/16 21:03:01;;;;;;;;;;;5.50;99.90;;;;;;8608382;27;19928;-83
2024/04/16 21:07:02;;;;;;;;;;;5.60;99.90;;;;;;8621050;27;19943;-82
2024/04/16 21:11:02;;;;;;;;;;;5.60;99.90;;;;;;8617954;27;19928;-83
2024/04/16 21:15:03;;;;;;;;;;;5.70;99.90;;;;;;8573588;27;19929;-82
2024/04/16 21:19:03;;;;;;;;;;;5.60;99.90;;;;;;8569344;27;19929;-83
2024/04/16 21:23:04;;;;;;;;;;;5.70;99.90;;;;;;8613276;27;19936;-83
2024/04/16 21:27:06;;;;;;;;;;;5.30;99.90;;;;;;8585922;27;19928;-84
2024/04/16 21:31:06;;;;;;;;;;;5.30;99.90;;;;;;8567840;27;20732;-83
2024/04/16 21:35:09;;;;;;;;;;;5.40;99.90;;;;;;8586122;27;19928;-82
2024/04/16 21:39:09;;;;;;;;;;;5.40;99.90;;;;;;8565211;27;19934;-82
2024/04/16 21:43:10;;;;;;;;;;;5.20;99.90;;;;;;8614368;27;19928;-82
2024/04/16 21:47:13;;;;;;;;;;;5.10;99.90;;;;;;8575167;27;20085;-83
2024/04/16 21:51:13;;;;;;;;;;;5.20;99.90;;;;;;8572548;27;19937;-82
2024/04/16 21:55:14;;;;;;;;;;;5.00;99.90;;;;;;8575691;27;19928;-83
2024/04/16 21:59:14;;;;;;;;;;;4.80;99.90;;;;;;8573443;27;19935;-82
2024/04/16 22:03:15;;;;;;;;;;;4.70;99.90;;;;;;8612921;27;19928;-83
2024/04/16 22:07:15;;;;;;;;;;;4.80;99.90;;;;;;8574920;27;20281;-83
2024/04/16 22:11:16;;;;;;;;;;;4.70;99.90;;;;;;8612139;27;20301;-83
2024/04/16 22:15:16;;;;;;;;;;;4.90;99.90;;;;;;8591725;27;19928;-84
2024/04/16 22:19:17;;;;;;;;;;;5.00;99.90;;;;;;8588081;27;20592;-84
2024/04/16 22:23:17;;;;;;;;;;;5.00;99.90;;;;;;8576779;27;19942;-83
2024/04/16 22:27:18;;;;;;;;;;;5.40;99.90;;;;;;8605663;27;19932;-83
2024/04/16 22:31:18;;;;;;;;;;;5.60;99.90;;;;;;8568546;27;20443;-83
2024/04/16 22:35:19;;;;;;;;;;;5.70;99.90;;;;;;8568291;27;19928;-83
2024/04/16 22:39:19;;;;;;;;;;;5.80;99.90;;;;;;8579281;27;19935;-83
2024/04/16 22:43:20;;;;;;;;;;;5.70;99.90;;;;;;8582022;27;19929;-84
2024/04/16 22:47:20;;;;;;;;;;;5.60;99.90;;;;;;8610265;27;19929;-82
2024/04/16 22:51:21;;;;;;;;;;;5.70;99.90;;;;;;8605950;27;19928;-84
2024/04/16 22:55:21;;;;;;;;;;;5.70;99.90;;;;;;8615029;27;19928;-83
2024/04/16 22:59:21;;;;;;;;;;;5.90;99.90;;;;;;8588771;27;19928;-85
2024/04/16 23:03:22;;;;;;;;;;;5.70;99.90;;;;;;8577307;27;19935;-84
2024/04/16 23:07:22;;;;;;;;;;;5.70;99.90;;;;;;8610362;27;19944;-83
2024/04/16 23:11:23;;;;;;;;;;;5.70;99.90;;;;;;8610037;27;19928;-85
2024/04/16 23:15:23;;;;;;;;;;;5.50;99.90;;;;;;8602194;27;19928;-83
2024/04/16 23:19:24;;;;;;;;;;;5.70;99.90;;;;;;8586638;27;19934;-86
2024/04/16 23:23:24;;;;;;;;;;;5.50;99.90;;;;;;8586864;27;20684;-81
2024/04/16 23:27:25;;;;;;;;;;;5.60;99.90;;;;;;8607926;27;20374;-83
2024/04/16 23:31:25;;;;;;;;;;;5.60;99.90;;;;;;8620820;27;20407;-84
2024/04/16 23:35:26;;;;;;;;;;;5.70;99.90;;;;;;8593315;27;19928;-85
2024/04/16 23:39:26;;;;;;;;;;;5.70;99.90;;;;;;8591483;27;19928;-81
2024/04/16 23:43:27;;;;;;;;;;;5.50;99.90;;;;;;8620149;27;20298;-81
2024/04/16 23:47:27;;;;;;;;;;;5.40;99.90;;;;;;8610594;27;19935;-83
2024/04/16 23:51:28;;;;;;;;;;;5.60;99.90;;;;;;8586711;27;19936;-82
2024/04/16 23:55:29;;;;;;;;;;;5.40;99.90;;;;;;8612317;27;19928;-82
2024/04/16 23:59:30;;;;;;;;;;;5.60;99.90;;;;;;8606904;27;19938;-82
